Time,TemperatureF,DewpointF,PressureIn,WindDirection,WindDirectionDegrees,WindSpeedMPH,WindSpeedGustMPH,Humidity,HourlyPrecipIn,Conditions,Clouds,dailyrainin,SoftwareType,DateUTC
2013-03-05 00:00:00,21.7,17.9,30.11,NNW,332,0.0,0.0,85,0.00,FEW,,0.02,WeatherDisplay:10.37,2013-03-05 05:00:00,
2013-03-05 00:05:00,21.6,17.8,30.11,NNW,332,0.0,0.0,85,0.00,RA,,0.00,WeatherDisplay:10.37,2013-03-05 05:05:00,
2013-03-05 00:10:00,21.5,17.7,30.11,NNW,332,0.0,0.0,85,0.00,RA,,0.00,WeatherDisplay:10.37,2013-03-05 05:10:00,
2013-03-05 00:15:00,21.4,17.6,30.12,NNW,332,0.0,0.0,85,0.00,FEW,,0.00,WeatherDisplay:10.37,2013-03-05 05:15:00,
2013-03-05 00:20:00,21.3,17.5,30.12,NNW,332,0.0,0.0,85,0.00,FEW,,0.00,WeatherDisplay:10.37,2013-03-05 05:20:00,
2013-03-05 00:25:00,21.3,17.8,30.12,NNW,332,0.0,0.0,86,0.00,FEW,,0.00,WeatherDisplay:10.37,2013-03-05 05:25:00,
2013-03-05 00:30:00,21.2,17.9,30.12,NNW,332,0.0,0.0,87,0.00,FEW,,0.00,WeatherDisplay:10.37,2013-03-05 05:30:00,
2013-03-05 00:35:00,21.2,17.9,30.12,NNW,332,0.0,0.0,87,0.00,FEW,,0.00,WeatherDisplay:10.37,2013-03-05 05:35:00,
2013-03-05 00:40:00,21.1,17.8,30.12,NNW,332,0.0,0.0,87,0.00,FEW,,0.00,WeatherDisplay:10.37,2013-03-05 05:40:00,
2013-03-05 00:45:00,21.1,18.1,30.12,NNW,332,0.0,0.0,88,0.00,FEW,,0.00,WeatherDisplay:10.37,2013-03-05 05:45:00,
2013-03-05 00:50:00,21.1,18.1,30.13,NNW,332,0.0,0.0,88,0.00,FEW,,0.00,WeatherDisplay:10.37,2013-03-05 05:50:00,
2013-03-05 00:55:00,21.0,18.0,30.13,NNW,332,0.0,0.0,88,0.00,FEW,,0.00,WeatherDisplay:10.37,2013-03-05 05:55:00,
2013-03-05 01:00:00,20.8,17.8,30.13,NNW,332,0.0,0.0,88,0.00,FEW,,0.00,WeatherDisplay:10.37,2013-03-05 06:00:00,
2013-03-05 01:05:00,20.7,17.4,30.13,NNW,332,0.0,0.0,87,0.00,FEW,,0.00,WeatherDisplay:10.37,2013-03-05 06:05:00,
2013-03-05 01:10:00,20.6,17.6,30.13,NNW,331,0.0,0.0,88,0.00,FEW,,0.00,WeatherDisplay:10.37,2013-03-05 06:10:00,
2013-03-05 01:15:00,20.5,17.5,30.13,NNW,331,0.0,0.0,88,0.00,FEW,,0.00,WeatherDisplay:10.37,2013-03-05 06:15:00,
2013-03-05 01:20:00,20.4,17.4,30.13,NNW,331,0.0,0.0,88,0.00,FEW,,0.00,WeatherDisplay:10.37,2013-03-05 06:20:00,
2013-03-05 01:25:00,20.4,17.7,30.13,NNW,332,0.0,0.0,89,0.00,FEW,,0.00,WeatherDisplay:10.37,2013-03-05 06:25:00,
2013-03-05 01:30:00,20.4,17.7,30.13,NNW,331,0.0,0.0,89,0.00,FEW,,0.00,WeatherDisplay:10.37,2013-03-05 06:30:00,
2013-03-05 01:35:00,20.4,17.9,30.13,NNW,331,0.0,0.0,90,0.00,FEW,,0.00,WeatherDisplay:10.37,2013-03-05 06:35:00,
2013-03-05 01:40:00,20.4,17.9,30.13,NNW,331,0.0,0.0,90,0.00,FEW,,0.00,WeatherDisplay:10.37,2013-03-05 06:40:00,
2013-03-05 01:45:00,20.4,17.9,30.13,NNW,331,0.0,0.0,90,0.00,FEW,,0.00,WeatherDisplay:10.37,2013-03-05 06:45:00,
2013-03-05 01:50:00,20.3,17.8,30.13,NNW,331,0.0,0.0,90,0.00,FEW,,0.00,WeatherDisplay:10.37,2013-03-05 06:50:00,
2013-03-05 01:55:00,20.2,17.7,30.13,NNW,331,0.0,0.0,90,0.00,FEW,,0.00,WeatherDisplay:10.37,2013-03-05 06:55:00,
2013-03-05 02:00:00,20.2,17.7,30.13,NNW,331,0.0,0.0,90,0.00,FEW,,0.00,WeatherDisplay:10.37,2013-03-05 07:00:00,
2013-03-05 02:05:00,20.1,17.6,30.13,NNW,331,0.0,0.0,90,0.00,FEW,,0.00,WeatherDisplay:10.37,2013-03-05 07:05:00,
2013-03-05 02:10:00,20.0,17.5,30.13,NNW,331,0.0,0.0,90,0.00,FEW,,0.00,WeatherDisplay:10.37,2013-03-05 07:10:00,
2013-03-05 02:15:00,20.0,17.5,30.13,NNW,331,0.0,0.0,90,0.00,FEW,,0.00,WeatherDisplay:10.37,2013-03-05 07:15:00,
2013-03-05 02:20:00,19.9,17.4,30.13,NNW,331,0.0,0.0,90,0.00,FEW,,0.00,WeatherDisplay:10.37,2013-03-05 07:20:00,
2013-03-05 02:25:00,19.8,17.3,30.13,NNW,331,0.0,0.0,90,0.00,FEW,,0.00,WeatherDisplay:10.37,2013-03-05 07:25:00,
2013-03-05 02:30:00,19.8,17.3,30.12,NNW,331,0.0,0.0,90,0.00,FEW,,0.00,WeatherDisplay:10.37,2013-03-05 07:30:00,
2013-03-05 02:35:00,19.8,17.6,30.12,NNW,331,0.0,0.0,91,0.00,FEW,,0.00,WeatherDisplay:10.37,2013-03-05 07:35:00,
2013-03-05 02:40:00,19.8,17.6,30.12,NNW,331,0.0,0.0,91,0.00,FEW,,0.00,WeatherDisplay:10.37,2013-03-05 07:40:00,
2013-03-05 02:45:00,19.8,17.6,30.12,NNW,331,0.0,0.0,91,0.00,FEW,,0.00,WeatherDisplay:10.37,2013-03-05 07:45:00,
2013-03-05 02:50:00,19.7,17.5,30.12,NNW,331,0.0,0.0,91,0.00,FEW,,0.00,WeatherDisplay:10.37,2013-03-05 07:50:00,
2013-03-05 02:55:00,19.5,17.0,30.12,NNW,331,0.0,0.0,90,0.00,FEW,,0.00,WeatherDisplay:10.37,2013-03-05 07:55:00,
2013-03-05 03:00:00,19.3,17.1,30.12,NNW,331,0.0,0.0,91,0.00,FEW,,0.00,WeatherDisplay:10.37,2013-03-05 08:00:00,
2013-03-05 03:05:00,19.2,17.0,30.12,NNW,331,0.0,0.0,91,0.00,FEW,,0.00,WeatherDisplay:10.37,2013-03-05 08:05:00,
2013-03-05 03:10:00,19.0,16.8,30.12,NNW,331,0.0,0.0,91,0.00,FEW,,0.00,WeatherDisplay:10.37,2013-03-05 08:10:00,
2013-03-05 03:15:00,18.9,16.7,30.12,NNW,331,0.0,0.0,91,0.00,FEW,,0.00,WeatherDisplay:10.37,2013-03-05 08:15:00,
2013-03-05 03:20:00,19.0,17.1,30.12,NNW,331,0.7,1.0,92,0.00,FEW,,0.00,WeatherDisplay:10.37,2013-03-05 08:20:00,
2013-03-05 03:25:00,19.1,17.2,30.12,NNW,331,0.0,0.0,92,0.00,FEW,,0.00,WeatherDisplay:10.37,2013-03-05 08:25:00,
2013-03-05 03:30:00,19.2,17.5,30.11,NNW,331,0.0,0.0,93,0.00,FEW,,0.00,WeatherDisplay:10.37,2013-03-05 08:30:00,
2013-03-05 03:35:00,19.3,17.6,30.11,NNW,331,0.0,0.0,93,0.00,FEW,,0.00,WeatherDisplay:10.37,2013-03-05 08:35:00,
2013-03-05 03:40:00,19.3,17.4,30.11,NNW,331,0.0,0.0,92,0.00,FEW,,0.00,WeatherDisplay:10.37,2013-03-05 08:40:00,
2013-03-05 03:45:00,19.2,17.3,30.11,NNW,331,0.0,0.0,92,0.00,FEW,,0.00,WeatherDisplay:10.37,2013-03-05 08:45:00,
2013-03-05 03:50:00,19.2,17.3,30.11,NNW,331,0.0,0.0,92,0.00,FEW,,0.00,WeatherDisplay:10.37,2013-03-05 08:50:00,
2013-03-05 03:55:00,19.1,17.2,30.11,NNW,331,0.0,0.0,92,0.00,FEW,,0.00,WeatherDisplay:10.37,2013-03-05 08:55:00,
2013-03-05 04:00:00,19.0,17.1,30.10,NNW,331,0.0,0.0,92,0.00,FEW,,0.00,WeatherDisplay:10.37,2013-03-05 09:00:00,
2013-03-05 04:05:00,18.9,17.0,30.10,NNW,331,0.0,0.0,92,0.00,BKN,,0.00,WeatherDisplay:10.37,2013-03-05 09:05:00,
2013-03-05 04:10:00,18.8,16.9,30.10,NNW,331,0.0,0.0,92,0.00,BKN,,0.00,WeatherDisplay:10.37,2013-03-05 09:10:00,
2013-03-05 04:15:00,18.6,16.7,30.10,NNW,331,0.0,0.0,92,0.00,BKN,,0.00,WeatherDisplay:10.37,2013-03-05 09:15:00,
2013-03-05 04:20:00,18.6,16.7,30.10,NNW,331,0.0,0.0,92,0.00,BKN,,0.00,WeatherDisplay:10.37,2013-03-05 09:20:00,
2013-03-05 04:25:00,18.5,16.6,30.10,NNW,331,0.0,0.0,92,0.00,BKN,,0.00,WeatherDisplay:10.37,2013-03-05 09:25:00,
2013-03-05 04:30:00,18.5,16.8,30.10,NNW,331,0.0,0.0,93,0.00,BKN,,0.00,WeatherDisplay:10.37,2013-03-05 09:30:00,
2013-03-05 04:35:00,18.4,16.7,30.10,NNW,331,0.0,0.0,93,0.00,BKN,,0.00,WeatherDisplay:10.37,2013-03-05 09:35:00,
2013-03-05 04:40:00,18.3,16.6,30.10,NNW,331,0.0,0.0,93,0.00,BKN,,0.00,WeatherDisplay:10.37,2013-03-05 09:40:00,
2013-03-05 04:45:00,18.2,16.5,30.10,NNW,331,0.0,0.0,93,0.00,BKN,,0.00,WeatherDisplay:10.37,2013-03-05 09:45:00,
2013-03-05 04:50:00,18.1,16.4,30.10,NNW,332,0.0,0.0,93,0.00,BKN,,0.00,WeatherDisplay:10.37,2013-03-05 09:50:00,
2013-03-05 04:55:00,18.0,16.3,30.10,NNW,331,0.0,0.0,93,0.00,BKN,,0.00,WeatherDisplay:10.37,2013-03-05 09:55:00,
2013-03-05 05:00:00,18.0,16.3,30.10,NNW,332,0.0,0.0,93,0.00,BKN,,0.00,WeatherDisplay:10.37,2013-03-05 10:00:00,
2013-03-05 05:05:00,17.9,16.2,30.10,NNW,332,0.0,0.0,93,0.00,BKN,,0.00,WeatherDisplay:10.37,2013-03-05 10:05:00,
2013-03-05 05:10:00,17.9,16.2,30.10,NNW,332,0.0,0.0,93,0.00,BKN,,0.00,WeatherDisplay:10.37,2013-03-05 10:10:00,
2013-03-05 05:15:00,17.7,16.0,30.11,NNW,332,0.0,0.0,93,0.00,BKN,,0.00,WeatherDisplay:10.37,2013-03-05 10:15:00,
2013-03-05 05:20:00,17.7,16.0,30.11,NNW,331,0.0,0.0,93,0.00,BKN,,0.00,WeatherDisplay:10.37,2013-03-05 10:20:00,
2013-03-05 05:25:00,17.6,16.2,30.10,NNW,331,0.0,0.0,94,0.00,BKN,,0.00,WeatherDisplay:10.37,2013-03-05 10:25:00,
2013-03-05 05:30:00,17.6,15.9,30.11,NNW,331,0.0,0.0,93,0.00,BKN,,0.00,WeatherDisplay:10.37,2013-03-05 10:30:00,
2013-03-05 05:35:00,17.6,16.2,30.10,NNW,331,0.0,0.0,94,0.00,BKN,,0.00,WeatherDisplay:10.37,2013-03-05 10:35:00,
2013-03-05 05:40:00,17.7,16.3,30.10,NNW,331,0.0,0.0,94,0.00,BKN,,0.00,WeatherDisplay:10.37,2013-03-05 10:40:00,
2013-03-05 05:45:00,17.6,16.2,30.10,NNW,331,0.0,0.0,94,0.00,BKN,,0.00,WeatherDisplay:10.37,2013-03-05 10:45:00,
2013-03-05 05:50:00,17.6,16.2,30.10,NNW,331,0.0,0.0,94,0.00,BKN,,0.00,WeatherDisplay:10.37,2013-03-05 10:50:00,
2013-03-05 05:55:00,17.5,16.1,30.10,NNW,331,0.0,0.0,94,0.00,BKN,,0.00,WeatherDisplay:10.37,2013-03-05 10:55:00,
2013-03-05 06:00:00,17.5,16.1,30.10,NNW,331,0.0,0.0,94,0.00,BKN,,0.00,WeatherDisplay:10.37,2013-03-05 11:00:00,
2013-03-05 06:05:00,17.5,16.1,30.10,NNW,331,0.0,0.0,94,0.00,BKN,,0.00,WeatherDisplay:10.37,2013-03-05 11:05:00,
2013-03-05 06:10:00,17.5,16.1,30.10,NNW,331,0.0,0.0,94,0.00,BKN,,0.00,WeatherDisplay:10.37,2013-03-05 11:10:00,
2013-03-05 06:15:00,17.5,16.1,30.10,NNW,331,0.0,0.0,94,0.00,BKN,,0.00,WeatherDisplay:10.37,2013-03-05 11:15:00,
2013-03-05 06:20:00,17.5,16.3,30.09,NNW,331,0.0,0.0,95,0.00,BKN,,0.00,WeatherDisplay:10.37,2013-03-05 11:20:00,
2013-03-05 06:25:00,17.5,16.3,30.09,NNW,331,0.0,0.0,95,0.00,BKN,,0.00,WeatherDisplay:10.37,2013-03-05 11:25:00,
2013-03-05 06:30:00,17.5,16.3,30.09,NNW,331,0.0,0.0,95,0.00,BKN,,0.00,WeatherDisplay:10.37,2013-03-05 11:30:00,
2013-03-05 06:35:00,17.5,16.3,30.09,NNW,337,1.2,3.5,95,0.00,BKN,,0.00,WeatherDisplay:10.37,2013-03-05 11:35:00,
2013-03-05 06:40:00,17.7,16.5,30.09,ENE,61,2.3,3.5,95,0.00,BKN,,0.00,WeatherDisplay:10.37,2013-03-05 11:40:00,
2013-03-05 06:45:00,18.0,17.1,30.09,ENE,61,1.3,2.3,96,0.00,BKN,,0.00,WeatherDisplay:10.37,2013-03-05 11:45:00,
2013-03-05 06:50:00,18.4,17.5,30.09,ENE,61,0.1,0.0,96,0.00,BKN,,0.00,WeatherDisplay:10.37,2013-03-05 11:50:00,
2013-03-05 06:55:00,18.5,17.6,30.09,ENE,61,0.0,3.5,96,0.00,BKN,,0.00,WeatherDisplay:10.37,2013-03-05 11:55:00,
2013-03-05 07:00:00,18.6,17.4,30.09,ENE,61,0.0,0.0,95,0.00,BKN,,0.00,WeatherDisplay:10.37,2013-03-05 12:00:00,
2013-03-05 07:05:00,18.8,17.8,30.09,ENE,61,0.0,0.0,96,0.00,SCT,,0.00,WeatherDisplay:10.37,2013-03-05 12:05:00,
2013-03-05 07:10:00,18.8,17.8,30.09,ENE,61,0.0,0.0,96,0.00,SCT,,0.00,WeatherDisplay:10.37,2013-03-05 12:10:00,
2013-03-05 07:15:00,18.9,17.7,30.09,ENE,61,0.0,0.0,95,0.00,SCT,,0.00,WeatherDisplay:10.37,2013-03-05 12:15:00,
2013-03-05 07:20:00,18.8,17.6,30.09,ENE,61,0.0,0.0,95,0.00,SCT,,0.00,WeatherDisplay:10.37,2013-03-05 12:20:00,
2013-03-05 07:25:00,18.8,17.6,30.09,ENE,61,0.0,0.0,95,0.00,SCT,,0.00,WeatherDisplay:10.37,2013-03-05 12:25:00,
2013-03-05 07:30:00,18.8,17.6,30.09,ENE,61,0.0,0.0,95,0.00,SCT,,0.00,WeatherDisplay:10.37,2013-03-05 12:30:00,
2013-03-05 07:35:00,18.8,17.6,30.09,ENE,61,0.0,0.0,95,0.00,SCT,,0.00,WeatherDisplay:10.37,2013-03-05 12:35:00,
2013-03-05 07:40:00,18.9,17.7,30.09,ENE,61,0.0,0.0,95,0.00,SCT,,0.00,WeatherDisplay:10.37,2013-03-05 12:40:00,
2013-03-05 07:45:00,19.0,17.8,30.09,ENE,61,0.0,0.0,95,0.00,SCT,,0.00,WeatherDisplay:10.37,2013-03-05 12:45:00,
2013-03-05 07:50:00,19.1,17.9,30.08,ENE,77,0.0,0.0,95,0.00,SCT,,0.00,WeatherDisplay:10.37,2013-03-05 12:50:00,
2013-03-05 07:55:00,19.4,18.2,30.08,ENE,78,0.1,2.0,95,0.00,SCT,,0.00,WeatherDisplay:10.37,2013-03-05 12:55:00,
2013-03-05 08:00:00,19.7,18.7,30.08,East,83,1.7,3.5,96,0.00,SCT,,0.00,WeatherDisplay:10.37,2013-03-05 13:00:00,
2013-03-05 08:05:00,20.1,19.1,30.08,East,83,0.0,0.0,96,0.00,SCT,,0.00,WeatherDisplay:10.37,2013-03-05 13:05:00,
2013-03-05 08:10:00,20.6,19.6,30.08,ESE,104,2.4,4.0,96,0.00,SCT,,0.00,WeatherDisplay:10.37,2013-03-05 13:10:00,
2013-03-05 08:15:00,21.0,20.0,30.08,ENE,59,3.1,3.5,96,0.00,SCT,,0.00,WeatherDisplay:10.37,2013-03-05 13:15:00,
2013-03-05 08:20:00,21.4,20.2,30.08,SE,140,1.6,3.5,95,0.00,SCT,,0.00,WeatherDisplay:10.37,2013-03-05 13:20:00,
2013-03-05 08:25:00,21.8,20.3,30.08,ENE,71,0.0,1.1,94,0.00,SCT,,0.00,WeatherDisplay:10.37,2013-03-05 13:25:00,
2013-03-05 08:30:00,22.2,20.7,30.08,North,360,3.9,6.9,94,0.00,SCT,,0.00,WeatherDisplay:10.37,2013-03-05 13:30:00,
2013-03-05 08:35:00,22.5,20.8,30.08,North,360,2.3,3.5,93,0.00,SCT,,0.00,WeatherDisplay:10.37,2013-03-05 13:35:00,
2013-03-05 08:40:00,22.7,20.5,30.08,North,360,0.9,3.5,91,0.00,SCT,,0.00,WeatherDisplay:10.37,2013-03-05 13:40:00,
2013-03-05 08:45:00,22.8,20.3,30.08,North,360,0.0,3.5,90,0.00,SCT,,0.00,WeatherDisplay:10.37,2013-03-05 13:45:00,
2013-03-05 08:50:00,22.9,20.4,30.08,North,360,3.2,4.0,90,0.00,SCT,,0.00,WeatherDisplay:10.37,2013-03-05 13:50:00,
2013-03-05 08:55:00,23.0,20.5,30.08,North,360,0.4,1.1,90,0.00,SCT,,0.00,WeatherDisplay:10.37,2013-03-05 13:55:00,
2013-03-05 09:00:00,23.1,20.6,30.08,North,360,0.9,2.3,90,0.00,SCT,,0.00,WeatherDisplay:10.37,2013-03-05 14:00:00,
2013-03-05 09:05:00,23.1,20.6,30.08,North,360,0.9,2.3,90,0.00,BKN,,0.00,WeatherDisplay:10.37,2013-03-05 14:05:00,
2013-03-05 09:10:00,23.1,20.6,30.08,North,360,2.2,3.5,90,0.00,BKN,,0.00,WeatherDisplay:10.37,2013-03-05 14:10:00,
2013-03-05 09:15:00,23.1,20.6,30.08,North,360,2.7,4.6,90,0.00,BKN,,0.00,WeatherDisplay:10.37,2013-03-05 14:15:00,
2013-03-05 09:20:00,23.1,20.3,30.08,North,360,2.8,5.8,89,0.00,BKN,,0.00,WeatherDisplay:10.37,2013-03-05 14:20:00,
2013-03-05 09:25:00,23.1,20.3,30.08,North,360,2.5,3.5,89,0.00,BKN,,0.00,WeatherDisplay:10.37,2013-03-05 14:25:00,
2013-03-05 09:30:00,23.0,20.2,30.07,North,360,0.9,3.5,89,0.00,BKN,,0.00,WeatherDisplay:10.37,2013-03-05 14:30:00,
2013-03-05 09:35:00,23.2,20.7,30.08,North,360,3.5,3.5,90,0.00,BKN,,0.00,WeatherDisplay:10.37,2013-03-05 14:35:00,
2013-03-05 09:40:00,23.3,20.8,30.08,North,360,2.1,5.8,90,0.00,BKN,,0.00,WeatherDisplay:10.37,2013-03-05 14:40:00,
2013-03-05 09:45:00,23.2,20.4,30.07,North,360,2.4,4.0,89,0.00,BKN,,0.00,WeatherDisplay:10.37,2013-03-05 14:45:00,
2013-03-05 09:50:00,23.3,20.8,30.07,North,360,1.3,3.5,90,0.00,BKN,,0.00,WeatherDisplay:10.37,2013-03-05 14:50:00,
2013-03-05 09:55:00,23.6,21.1,30.07,North,360,0.8,3.5,90,0.00,BKN,,0.00,WeatherDisplay:10.37,2013-03-05 14:55:00,
2013-03-05 10:00:00,24.0,21.2,30.06,North,360,1.5,3.0,89,0.00,BKN,,0.00,WeatherDisplay:10.37,2013-03-05 15:00:00,
2013-03-05 10:05:00,24.3,21.5,30.07,North,360,2.8,4.0,89,0.00,OVC,,0.00,WeatherDisplay:10.37,2013-03-05 15:05:00,
2013-03-05 10:10:00,24.7,21.9,30.07,North,360,3.5,3.5,89,0.00,OVC,,0.00,WeatherDisplay:10.37,2013-03-05 15:10:00,
2013-03-05 10:15:00,24.9,22.1,30.07,North,360,3.6,4.6,89,0.00,OVC,,0.00,WeatherDisplay:10.37,2013-03-05 15:15:00,
2013-03-05 10:20:00,25.2,22.1,30.07,North,360,5.3,6.9,88,0.00,OVC,,0.00,WeatherDisplay:10.37,2013-03-05 15:20:00,
2013-03-05 10:25:00,25.4,22.1,30.07,North,360,0.9,3.5,87,0.00,OVC,,0.00,WeatherDisplay:10.37,2013-03-05 15:25:00,
2013-03-05 10:30:00,25.7,22.1,30.06,North,360,3.7,4.6,86,0.00,OVC,,0.00,WeatherDisplay:10.37,2013-03-05 15:30:00,
2013-03-05 10:35:00,26.0,22.4,30.06,North,360,0.0,1.1,86,0.00,OVC,,0.00,WeatherDisplay:10.37,2013-03-05 15:35:00,
2013-03-05 10:40:00,26.5,23.4,30.06,North,360,0.9,2.3,88,0.00,OVC,,0.00,WeatherDisplay:10.37,2013-03-05 15:40:00,
2013-03-05 10:45:00,26.9,23.3,30.06,North,360,2.6,4.0,86,0.00,OVC,,0.00,WeatherDisplay:10.37,2013-03-05 15:45:00,
2013-03-05 10:50:00,27.2,23.0,30.06,North,360,0.0,1.1,84,0.00,OVC,,0.00,WeatherDisplay:10.37,2013-03-05 15:50:00,
2013-03-05 10:55:00,27.5,23.6,30.06,North,360,0.9,3.5,85,0.00,OVC,,0.00,WeatherDisplay:10.37,2013-03-05 15:55:00,
2013-03-05 11:00:00,27.7,23.5,30.05,North,360,1.7,2.3,84,0.00,OVC,,0.00,WeatherDisplay:10.37,2013-03-05 16:00:00,
2013-03-05 11:05:00,28.2,23.7,30.05,North,360,2.5,3.5,83,0.00,SCT,,0.00,WeatherDisplay:10.37,2013-03-05 16:05:00,
2013-03-05 11:10:00,28.7,23.6,30.06,North,360,1.7,2.3,81,0.00,SCT,,0.00,WeatherDisplay:10.37,2013-03-05 16:10:00,
2013-03-05 11:15:00,29.1,24.0,30.06,North,360,0.6,3.5,81,0.00,SCT,,0.00,WeatherDisplay:10.37,2013-03-05 16:15:00,
2013-03-05 11:20:00,29.4,24.0,30.05,East,101,3.3,4.6,80,0.00,SCT,,0.00,WeatherDisplay:10.37,2013-03-05 16:20:00,
2013-03-05 11:25:00,29.7,24.0,30.05,North,360,2.3,4.6,79,0.00,SCT,,0.00,WeatherDisplay:10.37,2013-03-05 16:25:00,
2013-03-05 11:30:00,30.0,24.3,30.04,North,360,4.3,4.6,79,0.00,SCT,,0.00,WeatherDisplay:10.37,2013-03-05 16:30:00,
2013-03-05 11:35:00,30.3,24.3,30.04,North,360,3.5,6.9,78,0.00,SCT,,0.00,WeatherDisplay:10.37,2013-03-05 16:35:00,
2013-03-05 11:40:00,30.6,24.2,30.04,North,360,4.3,8.0,77,0.00,SCT,,0.00,WeatherDisplay:10.37,2013-03-05 16:40:00,
2013-03-05 11:45:00,30.8,24.4,30.04,North,360,2.8,4.6,77,0.00,SCT,,0.00,WeatherDisplay:10.37,2013-03-05 16:45:00,
2013-03-05 11:50:00,31.2,24.5,30.03,North,360,2.1,4.0,76,0.00,SCT,,0.00,WeatherDisplay:10.37,2013-03-05 16:50:00,
2013-03-05 11:55:00,31.7,25.0,30.03,North,360,3.9,4.6,76,0.00,SCT,,0.00,WeatherDisplay:10.37,2013-03-05 16:55:00,
2013-03-05 12:00:00,32.0,25.0,30.03,North,360,1.0,3.0,75,0.00,SCT,,0.00,WeatherDisplay:10.37,2013-03-05 17:00:00,
2013-03-05 12:05:00,32.3,24.6,30.02,North,360,3.7,4.6,73,0.00,CLR,,0.00,WeatherDisplay:10.37,2013-03-05 17:05:00,
2013-03-05 12:10:00,32.5,25.5,30.02,North,360,4.3,8.0,75,0.00,CLR,,0.00,WeatherDisplay:10.37,2013-03-05 17:10:00,
2013-03-05 12:15:00,33.1,25.7,30.02,North,360,1.1,3.0,74,0.00,CLR,,0.00,WeatherDisplay:10.37,2013-03-05 17:15:00,
2013-03-05 12:20:00,33.5,24.8,30.02,North,360,3.1,4.6,70,0.00,CLR,,0.00,WeatherDisplay:10.37,2013-03-05 17:20:00,
2013-03-05 12:25:00,33.8,24.4,30.01,North,360,2.1,4.6,68,0.00,CLR,,0.00,WeatherDisplay:10.37,2013-03-05 17:25:00,
2013-03-05 12:30:00,34.1,25.7,30.01,North,360,3.8,6.0,71,0.00,CLR,,0.00,WeatherDisplay:10.37,2013-03-05 17:30:00,
2013-03-05 12:35:00,34.3,24.8,30.01,North,360,2.1,2.1,68,0.00,CLR,,0.00,WeatherDisplay:10.37,2013-03-05 17:35:00,
2013-03-05 12:40:00,34.6,25.1,30.00,North,360,3.0,5.0,68,0.00,CLR,,0.00,WeatherDisplay:10.37,2013-03-05 17:40:00,
2013-03-05 12:45:00,34.8,24.2,30.00,North,360,0.3,3.5,65,0.00,CLR,,0.00,WeatherDisplay:10.37,2013-03-05 17:45:00,
2013-03-05 12:50:00,35.2,24.6,30.00,North,360,0.2,5.8,65,0.00,CLR,,0.00,WeatherDisplay:10.37,2013-03-05 17:50:00,
2013-03-05 12:55:00,35.5,25.3,29.99,North,360,1.6,5.8,66,0.00,CLR,,0.00,WeatherDisplay:10.37,2013-03-05 17:55:00,
2013-03-05 13:00:00,35.7,24.7,29.99,North,360,1.7,4.6,64,0.00,CLR,,0.00,WeatherDisplay:10.37,2013-03-05 18:00:00,
2013-03-05 13:05:00,35.9,23.7,29.98,North,360,2.9,4.6,61,0.00,CLR,,0.00,WeatherDisplay:10.37,2013-03-05 18:05:00,
2013-03-05 13:10:00,36.1,24.7,29.98,North,360,0.4,1.1,63,0.00,CLR,,0.00,WeatherDisplay:10.37,2013-03-05 18:10:00,
2013-03-05 13:15:00,36.5,24.7,29.97,North,360,3.5,5.8,62,0.00,CLR,,0.00,WeatherDisplay:10.37,2013-03-05 18:15:00,
2013-03-05 13:20:00,36.6,25.2,29.97,ESE,113,3.5,8.0,63,0.00,CLR,,0.00,WeatherDisplay:10.37,2013-03-05 18:20:00,
2013-03-05 13:25:00,36.8,25.8,29.96,NE,49,3.8,6.9,64,0.00,CLR,,0.00,WeatherDisplay:10.37,2013-03-05 18:25:00,
2013-03-05 13:30:00,37.1,24.5,29.96,SE,132,4.5,6.9,60,0.00,CLR,,0.00,WeatherDisplay:10.37,2013-03-05 18:30:00,
2013-03-05 13:35:00,37.4,23.5,29.95,East,94,4.7,6.9,57,0.00,CLR,,0.00,WeatherDisplay:10.37,2013-03-05 18:35:00,
2013-03-05 13:40:00,37.7,24.6,29.94,ESE,109,3.5,5.0,59,0.00,CLR,,0.00,WeatherDisplay:10.37,2013-03-05 18:40:00,
2013-03-05 13:45:00,38.1,26.6,29.94,NE,37,6.1,11.5,63,0.00,CLR,,0.00,WeatherDisplay:10.37,2013-03-05 18:45:00,
2013-03-05 13:50:00,38.3,24.4,29.94,ENE,71,3.0,8.1,57,0.00,CLR,,0.00,WeatherDisplay:10.37,2013-03-05 18:50:00,
2013-03-05 13:55:00,38.3,24.8,29.94,ENE,70,2.9,6.9,58,0.00,CLR,,0.00,WeatherDisplay:10.37,2013-03-05 18:55:00,
2013-03-05 14:00:00,38.3,25.6,29.94,NNE,32,4.3,4.6,60,0.00,CLR,,0.00,WeatherDisplay:10.37,2013-03-05 19:00:00,
2013-03-05 14:05:00,38.6,25.9,29.94,ESE,105,5.6,8.1,60,0.00,BKN,,0.00,WeatherDisplay:10.37,2013-03-05 19:05:00,
2013-03-05 14:10:00,38.6,26.7,29.93,ESE,117,3.8,4.6,62,0.00,BKN,,0.00,WeatherDisplay:10.37,2013-03-05 19:10:00,
2013-03-05 14:15:00,38.8,27.3,29.93,East,82,3.8,5.0,63,0.00,BKN,,0.00,WeatherDisplay:10.37,2013-03-05 19:15:00,
2013-03-05 14:20:00,39.0,27.1,29.93,ENE,62,3.1,6.9,62,0.00,BKN,,0.00,WeatherDisplay:10.37,2013-03-05 19:20:00,
2013-03-05 14:25:00,39.3,27.0,29.92,East,95,2.1,8.1,61,0.00,BKN,,0.00,WeatherDisplay:10.37,2013-03-05 19:25:00,
2013-03-05 14:30:00,39.5,27.2,29.91,ENE,71,3.9,6.9,61,0.00,BKN,,0.00,WeatherDisplay:10.37,2013-03-05 19:30:00,
2013-03-05 14:35:00,39.7,25.7,29.91,East,86,2.1,6.9,57,0.00,BKN,,0.00,WeatherDisplay:10.37,2013-03-05 19:35:00,
2013-03-05 14:40:00,39.9,24.6,29.90,ENE,67,3.7,11.5,54,0.00,BKN,,0.00,WeatherDisplay:10.37,2013-03-05 19:40:00,
2013-03-05 14:45:00,40.0,25.6,29.90,SE,146,4.4,6.0,56,0.00,BKN,,0.00,WeatherDisplay:10.37,2013-03-05 19:45:00,
2013-03-05 14:50:00,40.4,24.1,29.90,SE,146,2.9,5.8,52,0.00,BKN,,0.00,WeatherDisplay:10.37,2013-03-05 19:50:00,
2013-03-05 14:55:00,40.5,25.6,29.89,NNE,27,3.9,8.0,55,0.00,BKN,,0.00,WeatherDisplay:10.37,2013-03-05 19:55:00,
2013-03-05 15:00:00,40.5,26.9,29.89,East,92,4.8,6.9,58,0.00,BKN,,0.00,WeatherDisplay:10.37,2013-03-05 20:00:00,
2013-03-05 15:05:00,40.7,27.9,29.89,ENE,71,4.0,10.4,60,0.00,SCT,,0.00,WeatherDisplay:10.37,2013-03-05 20:05:00,
2013-03-05 15:10:00,40.9,26.4,29.88,ENE,61,1.9,4.6,56,0.00,SCT,,0.00,WeatherDisplay:10.37,2013-03-05 20:10:00,
2013-03-05 15:15:00,41.2,26.7,29.88,ENE,78,7.2,7.2,56,0.00,SCT,,0.00,WeatherDisplay:10.37,2013-03-05 20:15:00,
2013-03-05 15:20:00,41.3,26.8,29.88,NE,47,5.5,6.9,56,0.00,SCT,,0.00,WeatherDisplay:10.37,2013-03-05 20:20:00,
2013-03-05 15:25:00,41.4,26.4,29.88,East,101,4.1,5.8,55,0.00,SCT,,0.00,WeatherDisplay:10.37,2013-03-05 20:25:00,
2013-03-05 15:30:00,41.5,27.0,29.87,East,101,3.8,4.0,56,0.00,SCT,,0.00,WeatherDisplay:10.37,2013-03-05 20:30:00,
2013-03-05 15:35:00,41.8,27.2,29.87,NE,52,4.0,8.0,56,0.00,SCT,,0.00,WeatherDisplay:10.37,2013-03-05 20:35:00,
2013-03-05 15:40:00,42.0,25.2,29.87,ESE,115,3.4,5.8,51,0.00,SCT,,0.00,WeatherDisplay:10.37,2013-03-05 20:40:00,
2013-03-05 15:45:00,41.9,24.6,29.87,East,88,4.3,5.8,50,0.00,SCT,,0.00,WeatherDisplay:10.37,2013-03-05 20:45:00,
2013-03-05 15:50:00,41.8,25.9,29.87,East,81,3.9,8.1,53,0.00,SCT,,0.00,WeatherDisplay:10.37,2013-03-05 20:50:00,
2013-03-05 15:55:00,41.8,25.9,29.86,East,86,4.9,8.1,53,0.00,SCT,,0.00,WeatherDisplay:10.37,2013-03-05 20:55:00,
2013-03-05 16:00:00,41.9,26.4,29.87,SE,128,3.6,3.6,54,0.00,SCT,,0.00,WeatherDisplay:10.37,2013-03-05 21:00:00,
2013-03-05 16:05:00,42.2,27.2,29.87,SE,128,0.0,0.0,55,0.00,SCT,,0.00,WeatherDisplay:10.37,2013-03-05 21:05:00,
2013-03-05 16:10:00,42.4,26.0,29.87,ESE,109,2.5,9.0,52,0.00,SCT,,0.00,WeatherDisplay:10.37,2013-03-05 21:10:00,
2013-03-05 16:15:00,42.1,26.6,29.86,ENE,76,2.8,4.6,54,0.00,SCT,,0.00,WeatherDisplay:10.37,2013-03-05 21:15:00,
2013-03-05 16:20:00,42.0,26.1,29.86,ESE,102,2.0,6.0,53,0.00,SCT,,0.00,WeatherDisplay:10.37,2013-03-05 21:20:00,
2013-03-05 16:25:00,42.1,24.8,29.86,ESE,117,0.4,5.8,50,0.00,SCT,,0.00,WeatherDisplay:10.37,2013-03-05 21:25:00,
2013-03-05 16:30:00,42.3,25.9,29.85,ENE,77,3.1,6.0,52,0.00,SCT,,0.00,WeatherDisplay:10.37,2013-03-05 21:30:00,
2013-03-05 16:35:00,42.4,25.5,29.85,NE,56,2.9,5.8,51,0.00,SCT,,0.00,WeatherDisplay:10.37,2013-03-05 21:35:00,
2013-03-05 16:40:00,42.4,25.5,29.84,ENE,57,4.1,8.1,51,0.00,SCT,,0.00,WeatherDisplay:10.37,2013-03-05 21:40:00,
2013-03-05 16:45:00,42.4,26.5,29.84,ENE,70,4.5,5.8,53,0.00,SCT,,0.00,WeatherDisplay:10.37,2013-03-05 21:45:00,
2013-03-05 16:50:00,42.3,25.9,29.85,NE,42,5.6,6.0,52,0.00,SCT,,0.00,WeatherDisplay:10.37,2013-03-05 21:50:00,
2013-03-05 16:55:00,42.1,25.7,29.84,NE,50,1.4,3.5,52,0.00,SCT,,0.00,WeatherDisplay:10.37,2013-03-05 21:55:00,
2013-03-05 17:00:00,42.0,27.4,29.84,South,189,0.8,8.0,56,0.00,SCT,,0.00,WeatherDisplay:10.37,2013-03-05 22:00:00,
2013-03-05 17:05:00,42.0,25.6,29.85,ENE,71,3.7,4.6,52,0.00,SCT,,0.00,WeatherDisplay:10.37,2013-03-05 22:05:00,
2013-03-05 17:10:00,42.0,25.2,29.84,East,86,3.8,8.1,51,0.00,SCT,,0.00,WeatherDisplay:10.37,2013-03-05 22:10:00,
2013-03-05 17:15:00,41.8,26.4,29.84,ENE,61,2.2,2.2,54,0.00,SCT,,0.00,WeatherDisplay:10.37,2013-03-05 22:15:00,
2013-03-05 17:20:00,41.5,25.6,29.84,ENE,78,1.8,6.9,53,0.00,SCT,,0.00,WeatherDisplay:10.37,2013-03-05 22:20:00,
2013-03-05 17:25:00,41.2,26.7,29.83,ENE,78,0.7,3.5,56,0.00,SCT,,0.00,WeatherDisplay:10.37,2013-03-05 22:25:00,
2013-03-05 17:30:00,40.8,25.9,29.83,ESE,109,5.3,5.3,55,0.00,SCT,,0.00,WeatherDisplay:10.37,2013-03-05 22:30:00,
2013-03-05 17:35:00,40.5,26.4,29.83,ESE,109,0.1,1.1,57,0.00,SCT,,0.00,WeatherDisplay:10.37,2013-03-05 22:35:00,
2013-03-05 17:40:00,40.1,26.1,29.83,East,82,1.7,3.5,57,0.00,SCT,,0.00,WeatherDisplay:10.37,2013-03-05 22:40:00,
2013-03-05 17:45:00,39.7,26.1,29.83,East,80,0.0,2.3,58,0.00,SCT,,0.00,WeatherDisplay:10.37,2013-03-05 22:45:00,
2013-03-05 17:50:00,39.4,25.8,29.83,East,80,1.2,2.3,58,0.00,SCT,,0.00,WeatherDisplay:10.37,2013-03-05 22:50:00,
2013-03-05 17:55:00,38.9,26.2,29.83,East,94,0.1,4.6,60,0.00,SCT,,0.00,WeatherDisplay:10.37,2013-03-05 22:55:00,
2013-03-05 18:00:00,38.6,25.9,29.82,East,82,0.0,1.1,60,0.00,SCT,,0.00,WeatherDisplay:10.37,2013-03-05 23:00:00,
2013-03-05 18:05:00,38.2,25.5,29.82,East,82,0.9,1.1,60,0.00,BKN,,0.00,WeatherDisplay:10.37,2013-03-05 23:05:00,
2013-03-05 18:10:00,37.9,26.8,29.81,NE,55,1.1,2.3,64,0.00,BKN,,0.00,WeatherDisplay:10.37,2013-03-05 23:10:00,
2013-03-05 18:15:00,37.5,26.0,29.81,NE,55,0.0,1.1,63,0.00,BKN,,0.00,WeatherDisplay:10.37,2013-03-05 23:15:00,
2013-03-05 18:20:00,37.2,25.4,29.81,NE,55,1.9,4.6,62,0.00,BKN,,0.00,WeatherDisplay:10.37,2013-03-05 23:20:00,
2013-03-05 18:25:00,37.0,25.9,29.81,NE,55,1.1,3.5,64,0.00,BKN,,0.00,WeatherDisplay:10.37,2013-03-05 23:25:00,
2013-03-05 18:30:00,36.9,25.9,29.82,ENE,57,1.0,4.0,64,0.00,BKN,BKN,0.00,WeatherDisplay:10.37,2013-03-05 23:30:00,
2013-03-05 18:35:00,36.7,26.0,29.82,ENE,68,1.0,4.0,65,0.00,BKN,BKN,0.00,WeatherDisplay:10.37,2013-03-05 23:35:00,
2013-03-05 18:40:00,36.5,25.8,29.82,ENE,58,1.1,3.5,65,0.00,BKN,,0.00,WeatherDisplay:10.37,2013-03-05 23:40:00,
2013-03-05 18:45:00,36.2,26.3,29.82,ENE,65,1.0,3.0,67,0.00,BKN,BKN,0.00,WeatherDisplay:10.37,2013-03-05 23:45:00,
2013-03-05 18:50:00,35.9,26.0,29.81,ENE,62,1.0,2.3,67,0.00,BKN,,0.00,WeatherDisplay:10.37,2013-03-05 23:50:00,
2013-03-05 18:55:00,35.7,26.1,29.81,ENE,62,1.0,2.0,68,0.00,BKN,BKN,0.00,WeatherDisplay:10.37,2013-03-05 23:55:00,
2013-03-05 19:00:00,35.4,25.9,29.81,ENE,62,1.0,4.0,68,0.00,BKN,BKN,0.00,WeatherDisplay:10.37,2013-03-06 00:00:00,
2013-03-05 19:05:00,35.3,25.4,29.81,ENE,60,1.0,3.0,67,0.00,SCT,SCT,0.00,WeatherDisplay:10.37,2013-03-06 00:05:00,
2013-03-05 19:10:00,35.2,25.7,29.81,NE,56,0.0,2.0,68,0.00,SCT,SCT,0.00,WeatherDisplay:10.37,2013-03-06 00:10:00,
2013-03-05 19:15:00,35.1,25.9,29.81,NE,51,1.0,3.0,69,0.00,SCT,SCT,0.00,WeatherDisplay:10.37,2013-03-06 00:15:00,
2013-03-05 19:20:00,35.0,25.5,29.80,ENE,57,2.0,5.0,68,0.00,SCT,SCT,0.00,WeatherDisplay:10.37,2013-03-06 00:20:00,
2013-03-05 19:25:00,34.9,25.4,29.80,ENE,61,1.0,3.0,68,0.00,SCT,SCT,0.00,WeatherDisplay:10.37,2013-03-06 00:25:00,
2013-03-05 19:30:00,34.8,25.3,29.81,ENE,59,0.0,2.0,68,0.00,SCT,SCT,0.00,WeatherDisplay:10.37,2013-03-06 00:30:00,
2013-03-05 19:35:00,34.7,25.3,29.80,ENE,59,0.0,3.0,68,0.00,SCT,SCT,0.00,WeatherDisplay:10.37,2013-03-06 00:35:00,
2013-03-05 19:40:00,34.7,25.9,29.80,ENE,60,0.0,4.0,70,0.00,SCT,SCT,0.00,WeatherDisplay:10.37,2013-03-06 00:40:00,
2013-03-05 19:45:00,34.5,25.0,29.80,ENE,61,0.0,2.0,68,0.00,SCT,SCT,0.00,WeatherDisplay:10.37,2013-03-06 00:45:00,
2013-03-05 19:50:00,34.4,26.0,29.79,ENE,61,2.0,3.0,71,0.00,SCT,SCT,0.00,WeatherDisplay:10.37,2013-03-06 00:50:00,
2013-03-05 19:55:00,34.2,25.1,29.78,ENE,72,2.0,5.0,69,0.00,SCT,SCT,0.00,WeatherDisplay:10.37,2013-03-06 00:55:00,
2013-03-05 20:00:00,34.2,25.8,29.78,ENE,66,0.2,3.5,71,0.00,SCT,,0.00,WeatherDisplay:10.37,2013-03-06 01:00:00,
2013-03-05 20:05:00,34.1,25.0,29.78,ENE,66,1.2,1.2,69,0.00,BKN,,0.00,WeatherDisplay:10.37,2013-03-06 01:05:00,
2013-03-05 20:10:00,34.1,25.0,29.77,ENE,64,3.0,4.0,69,0.00,BKN,,0.00,WeatherDisplay:10.37,2013-03-06 01:10:00,
2013-03-05 20:15:00,34.3,24.8,29.77,East,88,3.0,6.9,68,0.00,BKN,,0.00,WeatherDisplay:10.37,2013-03-06 01:15:00,
2013-03-05 20:20:00,34.4,24.9,29.76,East,88,4.0,6.9,68,0.00,BKN,,0.00,WeatherDisplay:10.37,2013-03-06 01:20:00,
2013-03-05 20:25:00,34.6,25.5,29.76,East,95,2.2,5.8,69,0.00,BKN,,0.00,WeatherDisplay:10.37,2013-03-06 01:25:00,
2013-03-05 20:30:00,34.8,26.0,29.76,ENE,64,4.2,5.0,70,0.00,BKN,,0.00,WeatherDisplay:10.37,2013-03-06 01:30:00,
2013-03-05 20:35:00,35.1,26.3,29.76,East,82,2.3,3.5,70,0.00,BKN,,0.00,WeatherDisplay:10.37,2013-03-06 01:35:00,
2013-03-05 20:40:00,35.2,26.0,29.75,ENE,77,3.0,8.1,69,0.00,BKN,,0.00,WeatherDisplay:10.37,2013-03-06 01:40:00,
2013-03-05 20:45:00,35.3,26.5,29.75,ENE,73,1.8,4.6,70,0.00,BKN,,0.00,WeatherDisplay:10.37,2013-03-06 01:45:00,
2013-03-05 20:50:00,35.3,26.1,29.75,NE,51,1.2,5.8,69,0.00,BKN,,0.00,WeatherDisplay:10.37,2013-03-06 01:50:00,
2013-03-05 20:55:00,35.4,26.2,29.74,NE,56,3.4,10.4,69,0.00,BKN,,0.00,WeatherDisplay:10.37,2013-03-06 01:55:00,
2013-03-05 21:00:00,35.5,26.3,29.74,East,91,3.9,6.9,69,0.00,BKN,,0.00,WeatherDisplay:10.37,2013-03-06 02:00:00,
2013-03-05 21:05:00,35.5,26.7,29.74,NE,38,2.3,3.5,70,0.00,OVC,,0.00,WeatherDisplay:10.37,2013-03-06 02:05:00,
2013-03-05 21:10:00,35.5,26.3,29.74,East,93,2.9,10.4,69,0.00,OVC,,0.00,WeatherDisplay:10.37,2013-03-06 02:10:00,
2013-03-05 21:15:00,35.6,26.8,29.74,ENE,58,2.6,4.6,70,0.00,OVC,,0.00,WeatherDisplay:10.37,2013-03-06 02:15:00,
2013-03-05 21:20:00,35.6,26.4,29.74,East,98,3.0,5.8,69,0.00,OVC,,0.00,WeatherDisplay:10.37,2013-03-06 02:20:00,
2013-03-05 21:25:00,35.6,26.4,29.74,East,82,5.0,6.9,69,0.00,OVC,,0.00,WeatherDisplay:10.37,2013-03-06 02:25:00,
2013-03-05 21:30:00,35.7,26.9,29.74,East,99,2.4,5.8,70,0.00,OVC,,0.00,WeatherDisplay:10.37,2013-03-06 02:30:00,
2013-03-05 21:35:00,35.7,26.9,29.73,ENE,61,4.3,6.0,70,0.00,OVC,,0.00,WeatherDisplay:10.37,2013-03-06 02:35:00,
2013-03-05 21:40:00,35.8,27.0,29.74,ESE,105,4.3,8.0,70,0.00,OVC,,0.00,WeatherDisplay:10.37,2013-03-06 02:40:00,
2013-03-05 21:45:00,35.9,27.1,29.74,East,86,2.0,9.0,70,0.00,OVC,OVC,0.00,WeatherDisplay:10.37,2013-03-06 02:45:00,
2013-03-05 21:50:00,35.9,27.1,29.73,NE,43,1.9,5.8,70,0.00,OVC,,0.00,WeatherDisplay:10.37,2013-03-06 02:50:00,
2013-03-05 21:55:00,35.9,27.1,29.73,ESE,122,3.7,8.1,70,0.00,OVC,,0.00,WeatherDisplay:10.37,2013-03-06 02:55:00,
2013-03-05 22:00:00,36.0,26.8,29.73,ENE,77,3.2,6.9,69,0.00,OVC,,0.00,WeatherDisplay:10.37,2013-03-06 03:00:00,
2013-03-05 22:05:00,36.0,27.2,29.73,East,89,5.0,8.1,70,0.00,OVC,,0.00,WeatherDisplay:10.37,2013-03-06 03:05:00,
2013-03-05 22:10:00,36.0,26.8,29.73,ESE,103,4.6,4.6,69,0.00,OVC,,0.00,WeatherDisplay:10.37,2013-03-06 03:10:00,
2013-03-05 22:15:00,36.0,27.2,29.73,ESE,102,4.1,4.1,70,0.00,OVC,,0.00,WeatherDisplay:10.37,2013-03-06 03:15:00,
2013-03-05 22:20:00,35.9,27.1,29.73,East,96,2.5,8.1,70,0.00,OVC,,0.00,WeatherDisplay:10.37,2013-03-06 03:20:00,
2013-03-05 22:25:00,35.9,27.1,29.73,East,85,3.6,5.0,70,0.00,OVC,,0.00,WeatherDisplay:10.37,2013-03-06 03:25:00,
2013-03-05 22:30:00,35.9,27.1,29.73,East,99,4.3,5.8,70,0.00,OVC,,0.00,WeatherDisplay:10.37,2013-03-06 03:30:00,
2013-03-05 22:35:00,35.9,27.1,29.73,ENE,66,4.8,8.1,70,0.00,OVC,,0.00,WeatherDisplay:10.37,2013-03-06 03:35:00,
2013-03-05 22:40:00,35.9,27.4,29.73,East,87,1.4,4.6,71,0.00,OVC,,0.00,WeatherDisplay:10.37,2013-03-06 03:40:00,
2013-03-05 22:45:00,35.8,27.0,29.73,East,83,5.0,11.5,70,0.00,OVC,,0.00,WeatherDisplay:10.37,2013-03-06 03:45:00,
2013-03-05 22:50:00,35.8,27.3,29.73,SE,134,5.8,5.8,71,0.00,OVC,,0.00,WeatherDisplay:10.37,2013-03-06 03:50:00,
2013-03-05 22:55:00,35.8,27.3,29.72,East,90,4.1,7.0,71,0.00,OVC,,0.00,WeatherDisplay:10.37,2013-03-06 03:55:00,
2013-03-05 23:00:00,35.8,27.3,29.73,ENE,77,1.3,4.6,71,0.00,OVC,,0.00,WeatherDisplay:10.37,2013-03-06 04:00:00,
2013-03-05 23:05:00,35.8,27.3,29.73,ESE,115,3.5,9.0,71,0.00,OVC,,0.00,WeatherDisplay:10.37,2013-03-06 04:05:00,
2013-03-05 23:10:00,35.8,27.3,29.73,East,92,1.7,6.9,71,0.00,OVC,,0.00,WeatherDisplay:10.37,2013-03-06 04:10:00,
2013-03-05 23:15:00,35.8,27.3,29.73,ESE,106,0.8,1.1,71,0.00,OVC,,0.00,WeatherDisplay:10.37,2013-03-06 04:15:00,
2013-03-05 23:20:00,35.7,27.2,29.73,East,97,5.2,11.5,71,0.00,OVC,,0.00,WeatherDisplay:10.37,2013-03-06 04:20:00,
2013-03-05 23:25:00,35.6,27.1,29.73,ENE,67,2.0,3.5,71,0.00,OVC,,0.00,WeatherDisplay:10.37,2013-03-06 04:25:00,
2013-03-05 23:30:00,35.6,27.5,29.72,East,83,6.4,6.4,72,0.00,OVC,,0.00,WeatherDisplay:10.37,2013-03-06 04:30:00,
2013-03-05 23:35:00,35.6,27.1,29.72,ESE,111,5.4,9.2,71,0.00,OVC,,0.00,WeatherDisplay:10.37,2013-03-06 04:35:00,
2013-03-05 23:40:00,35.6,27.5,29.72,NE,42,4.0,6.9,72,0.00,OVC,,0.00,WeatherDisplay:10.37,2013-03-06 04:40:00,
2013-03-05 23:45:00,35.5,27.4,29.72,East,95,2.4,9.2,72,0.00,OVC,,0.00,WeatherDisplay:10.37,2013-03-06 04:45:00,
2013-03-05 23:50:00,35.4,27.6,29.72,ENE,67,2.8,6.9,73,0.00,OVC,,0.00,WeatherDisplay:10.37,2013-03-06 04:50:00,
2013-03-05 23:55:00,35.3,27.5,29.72,East,97,5.6,5.6,73,0.00,OVC,,0.00,WeatherDisplay:10.37,2013-03-06 04:55:00,